Time;durP1;ratioP1;P1;durP2;ratioP2;P2;SDS_P1;SDS_P2;PMS_P1;PMS_P2;Temp;Humidity;BMP_temperature;BMP_pressure;BME280_temperature;BME280_humidity;BME280_pressure;Samples;Min_cycle;Max_cycle;Signal;HPM_P1;HPM_P2
2022/10/30 00:02:49;;;;;;;45.03;21.05;;;12.00;99.90;;;;;;4872095;29;20033;-85
2022/10/30 00:14:25;;;;;;;;;;;;;;;;;;;;;
2022/10/30 00:17:39;;;;;;;42.47;21.73;;;11.90;99.90;;;;;;4921874;29;20035;-86
2022/10/30 00:28:55;;;;;;;;;;;11.90;99.90;;;;;;4768519;30;20498;-88
2022/10/30 00:32:03;;;;;;;;;;;;;;;;;;;;;
2022/10/30 00:39:11;;;;;;;41.30;20.58;;;11.90;99.90;;;;;;4996274;28;20091;-88
2022/10/30 00:42:30;;;;;;;44.72;22.33;;;11.90;99.90;;;;;;5033436;28;20034;-87
2022/10/30 01:00:46;;;;;;;;;;;;;;;;;;;;;
2022/10/30 01:04:39;;;;;;;36.17;19.23;;;11.80;99.90;;;;;;5057675;28;20092;-86
2022/10/30 01:16:19;;;;;;;37.88;19.08;;;11.80;99.90;;;;;;4873961;29;20509;-87
2022/10/30 01:31:17;;;;;;;44.50;20.33;;;11.80;99.90;;;;;;4931455;28;20039;-87
2022/10/30 01:49:49;;;;;;;;;;;;;;;;;;;;;
2022/10/30 01:53:19;;;;;;;50.55;21.83;;;11.70;99.90;;;;;;5045134;28;20064;-88
2022/10/30 02:01:08;;;;;;;49.83;21.80;;;11.70;99.90;;;;;;5000278;28;20037;-86
2022/10/30 02:11:06;;;;;;;43.00;20.52;;;11.80;99.90;;;;;;5047300;28;20030;-85
2022/10/30 02:22:39;;;;;;;41.03;19.35;;;11.70;99.90;;;;;;4921194;29;20068;-86
2022/10/30 02:37:01;;;;;;;40.90;19.20;;;11.80;99.90;;;;;;4926906;29;20036;-85
2022/10/30 02:40:29;;;;;;;36.72;18.45;;;11.80;99.90;;;;;;4915330;29;20075;-85
2022/10/30 02:48:15;;;;;;;32.22;16.73;;;11.70;99.90;;;;;;4893142;29;20071;-86
2022/10/30 03:06:43;;;;;;;35.67;17.77;;;11.70;99.90;;;;;;4948791;29;20079;-86
2022/10/30 03:10:13;;;;;;;31.75;17.02;;;11.60;99.90;;;;;;4996850;28;20032;-88
2022/10/30 03:13:39;;;;;;;33.03;17.55;;;11.60;99.90;;;;;;5008994;28;20102;-87
2022/10/30 03:17:51;;;;;;;;;;;;;;;;;;;;;
2022/10/30 03:20:59;;;;;;;;;;;;;;;;;;;;;
2022/10/30 03:32:30;;;;;;;36.03;18.77;;;11.70;99.90;;;;;;4973731;28;20042;-88
2022/10/30 03:51:22;;;;;;;33.22;18.42;;;11.80;99.90;;;;;;4966187;28;20062;-88
2022/10/30 03:58:51;;;;;;;31.10;17.73;;;11.80;99.90;;;;;;5050133;28;20045;-85
2022/10/30 04:13:25;;;;;;;34.67;16.55;;;12.00;99.90;;;;;;5038524;28;20029;-86
2022/10/30 04:24:24;;;;;;;;;;;;;;;;;;;;;
2022/10/30 04:32:26;;;;;;;;;;;;;;;;;;;;;
2022/10/30 04:41:44;;;;;;;;;;;;;;;;;;;;;
2022/10/30 04:59:00;;;;;;;27.38;15.40;;;12.00;99.90;;;;;;1508890;26;20071;-87
2022/10/30 05:12:55;;;;;;;30.98;16.63;;;12.00;99.90;;;;;;6343268;22;20079;-86
2022/10/30 05:26:45;;;;;;;32.45;16.63;;;11.80;99.90;;;;;;6056865;22;6933602;-86
2022/10/30 05:29:35;;;;;;;;;;;;;;;;;;;;;
2022/10/30 05:32:23;;;;;;;32.80;16.10;;;11.70;99.90;;;;;;6307442;22;20014;-85
2022/10/30 05:35:25;;;;;;;34.85;17.13;;;11.70;99.90;;;;;;6227712;22;20091;-86
2022/10/30 05:38:37;;;;;;;28.23;15.05;;;11.80;99.90;;;;;;6212806;23;20024;-85
2022/10/30 05:41:40;;;;;;;33.17;16.15;;;11.70;99.90;;;;;;6217617;23;20608;-86
2022/10/30 05:44:30;;;;;;;33.63;16.35;;;11.70;99.90;;;;;;6190940;23;20012;-85
2022/10/30 05:47:01;;;;;;;34.85;17.48;;;11.70;99.90;;;;;;6200682;23;20100;-78
2022/10/30 05:49:29;;;;;;;37.00;18.13;;;11.70;99.90;;;;;;6227143;23;20000;-77
2022/10/30 05:51:57;;;;;;;33.40;16.60;;;11.70;99.90;;;;;;6244678;23;20004;-78
2022/10/30 05:54:24;;;;;;;32.25;16.30;;;11.80;99.90;;;;;;6243030;23;20004;-79
2022/10/30 05:57:02;;;;;;;30.75;16.92;;;11.80;99.90;;;;;;6238004;23;20050;-78
2022/10/30 05:59:29;;;;;;;35.67;17.58;;;11.90;99.90;;;;;;6236835;23;20015;-76
2022/10/30 06:01:55;;;;;;;31.05;16.50;;;11.80;99.90;;;;;;6236062;23;20001;-77
2022/10/30 06:04:22;;;;;;;36.20;17.40;;;11.80;99.90;;;;;;6232070;23;20039;-77
2022/10/30 06:06:48;;;;;;;30.42;16.42;;;11.90;99.90;;;;;;6237215;23;20064;-78
2022/10/30 06:09:14;;;;;;;30.58;16.65;;;11.90;99.90;;;;;;6236214;23;20004;-78
2022/10/30 06:11:52;;;;;;;36.78;16.77;;;11.80;99.90;;;;;;6233082;23;20051;-77
2022/10/30 06:14:23;;;;;;;36.08;17.13;;;11.80;99.90;;;;;;6236291;23;20459;-77
2022/10/30 06:16:50;;;;;;;30.90;16.20;;;11.90;99.90;;;;;;6237016;23;20008;-81
2022/10/30 06:19:31;;;;;;;37.58;17.50;;;11.80;99.90;;;;;;6240747;23;20033;-79
2022/10/30 06:22:18;;;;;;;35.40;16.38;;;11.80;99.90;;;;;;6240616;23;20009;-79
2022/10/30 06:24:58;;;;;;;34.17;16.20;;;11.80;99.90;;;;;;6240949;23;20064;-79
2022/10/30 06:27:43;;;;;;;37.58;16.70;;;11.80;99.90;;;;;;6235489;23;20358;-80
2022/10/30 06:30:09;;;;;;;30.33;16.73;;;11.80;99.90;;;;;;6232837;23;20008;-79
2022/10/30 06:32:35;;;;;;;31.90;16.65;;;11.80;99.90;;;;;;6232743;23;20434;-79
2022/10/30 06:35:01;;;;;;;30.30;15.68;;;11.80;99.90;;;;;;6233075;23;20262;-81
2022/10/30 06:37:27;;;;;;;30.83;16.05;;;11.90;99.90;;;;;;6234193;23;20001;-77
2022/10/30 06:39:53;;;;;;;28.55;15.50;;;11.90;99.90;;;;;;6229884;23;20008;-79
2022/10/30 06:42:47;;;;;;;31.15;16.08;;;11.90;99.90;;;;;;6200941;23;20096;-78
2022/10/30 06:45:35;;;;;;;30.60;15.95;;;11.90;99.90;;;;;;6229413;23;20005;-78
2022/10/30 06:48:01;;;;;;;31.95;17.08;;;11.90;99.90;;;;;;6232631;23;20107;-78
2022/10/30 06:50:31;;;;;;;30.88;15.52;;;11.90;99.90;;;;;;6231037;23;20005;-78
2022/10/30 06:52:57;;;;;;;29.55;15.93;;;11.90;99.90;;;;;;6232398;23;20031;-78
2022/10/30 06:55:23;;;;;;;30.58;16.73;;;11.90;99.90;;;;;;6230445;23;20005;-78
2022/10/30 06:58:07;;;;;;;31.33;16.48;;;12.00;99.90;;;;;;6232640;23;20042;-81
2022/10/30 07:00:45;;;;;;;32.08;16.35;;;11.90;99.90;;;;;;6233269;23;20020;-78
2022/10/30 07:03:13;;;;;;;32.03;17.27;;;11.90;99.90;;;;;;6227136;23;20064;-80
2022/10/30 07:05:39;;;;;;;31.60;15.43;;;11.90;99.90;;;;;;6223847;23;19985;-79
2022/10/30 07:08:06;;;;;;;30.30;15.52;;;11.90;99.90;;;;;;6236707;23;19988;-79
2022/10/30 07:10:32;;;;;;;30.38;14.95;;;12.00;99.90;;;;;;6235435;23;20061;-81
2022/10/30 07:13:17;;;;;;;30.15;15.82;;;12.00;99.90;;;;;;6242702;23;20024;-79
2022/10/30 07:16:01;;;;;;;29.15;15.15;;;12.00;99.90;;;;;;6238351;23;20019;-79
2022/10/30 07:18:33;;;;;;;24.38;14.15;;;12.10;99.90;;;;;;6230114;23;20035;-80
2022/10/30 07:21:00;;;;;;;25.27;14.27;;;12.10;99.90;;;;;;6231800;23;20008;-79
2022/10/30 07:23:28;;;;;;;26.23;14.88;;;12.20;99.90;;;;;;6230010;23;20001;-79
2022/10/30 07:26:03;;;;;;;23.33;13.45;;;12.20;99.90;;;;;;6221479;23;20095;-81
2022/10/30 07:28:44;;;;;;;25.23;13.80;;;12.30;99.90;;;;;;6220367;23;20013;-78
2022/10/30 07:31:15;;;;;;;27.75;14.43;;;12.30;99.90;;;;;;6220811;23;20323;-80
2022/10/30 07:33:50;;;;;;;29.08;13.63;;;12.30;99.90;;;;;;6240309;23;20020;-81
2022/10/30 07:36:32;;;;;;;23.50;13.75;;;12.30;99.90;;;;;;6230078;23;20036;-79
2022/10/30 07:39:02;;;;;;;23.77;13.35;;;12.30;99.90;;;;;;6220459;23;20012;-79
2022/10/30 07:41:34;;;;;;;25.52;13.35;;;12.20;99.90;;;;;;6218145;23;20000;-80
2022/10/30 07:44:19;;;;;;;21.95;12.32;;;12.10;99.90;;;;;;6220160;23;20027;-80
2022/10/30 07:47:04;;;;;;;21.58;12.07;;;12.10;99.90;;;;;;6218475;23;20058;-80
2022/10/30 07:49:58;;;;;;;20.88;12.32;;;12.10;99.90;;;;;;6219553;23;20354;-79
2022/10/30 07:52:24;;;;;;;21.75;12.07;;;12.10;99.90;;;;;;6224109;23;20004;-78
2022/10/30 07:54:51;;;;;;;20.15;12.90;;;12.10;99.90;;;;;;6233969;23;20008;-79
2022/10/30 07:57:43;;;;;;;21.60;12.13;;;12.10;99.90;;;;;;6220303;23;20008;-79
2022/10/30 08:00:13;;;;;;;27.42;13.60;;;12.10;99.90;;;;;;6232507;23;20062;-81
2022/10/30 08:02:40;;;;;;;22.60;12.73;;;12.10;99.90;;;;;;6222060;23;20016;-80
2022/10/30 08:05:31;;;;;;;25.48;13.50;;;12.10;99.90;;;;;;6209332;23;20000;-79
2022/10/30 08:08:05;;;;;;;30.92;14.00;;;12.20;99.90;;;;;;6227196;23;20476;-80
2022/10/30 08:10:31;;;;;;;25.83;13.27;;;12.20;99.90;;;;;;6224884;23;20013;-79
2022/10/30 08:12:57;;;;;;;26.00;13.55;;;12.30;99.90;;;;;;6221100;23;20001;-80
2022/10/30 08:15:23;;;;;;;26.38;14.50;;;12.30;99.90;;;;;;6224800;23;20033;-80
2022/10/30 08:17:50;;;;;;;27.17;14.77;;;12.30;99.90;;;;;;6223468;23;20004;-79
2022/10/30 08:20:22;;;;;;;24.90;13.45;;;12.30;99.90;;;;;;6217246;23;20032;-81
2022/10/30 08:22:51;;;;;;;27.88;14.07;;;12.30;99.90;;;;;;6217745;23;20016;-80
2022/10/30 08:25:23;;;;;;;26.35;14.20;;;12.40;99.90;;;;;;6217033;23;20012;-79
2022/10/30 08:27:52;;;;;;;22.95;13.07;;;12.40;99.90;;;;;;6218190;23;20013;-81
2022/10/30 08:30:18;;;;;;;24.45;13.20;;;12.50;99.90;;;;;;6191367;23;20050;-81
2022/10/30 08:32:44;;;;;;;23.55;12.68;;;12.60;99.90;;;;;;6217186;23;20013;-81
2022/10/30 08:35:33;;;;;;;22.25;12.45;;;12.60;99.90;;;;;;6181260;23;20016;-81
2022/10/30 08:38:01;;;;;;;23.17;13.55;;;12.70;99.90;;;;;;6217677;23;20024;-81
2022/10/30 08:40:27;;;;;;;25.88;13.60;;;12.70;99.90;;;;;;6222829;23;20009;-81
2022/10/30 08:43:00;;;;;;;22.70;13.02;;;12.80;99.90;;;;;;6221430;23;20024;-80
2022/10/30 08:45:26;;;;;;;26.23;13.43;;;12.90;99.90;;;;;;6222882;23;20015;-80
2022/10/30 08:48:12;;;;;;;27.30;12.65;;;12.90;99.90;;;;;;6197469;23;20139;-78
2022/10/30 08:50:40;;;;;;;19.45;11.95;;;12.90;99.90;;;;;;6195172;23;20005;-78
2022/10/30 08:53:13;;;;;;;23.75;12.23;;;12.90;99.90;;;;;;6171559;23;20001;-78
2022/10/30 08:55:39;;;;;;;23.80;11.55;;;12.80;99.90;;;;;;6205147;23;20035;-78
2022/10/30 08:58:12;;;;;;;22.23;12.57;;;12.70;99.90;;;;;;6205817;23;19997;-77
2022/10/30 09:00:38;;;;;;;21.98;11.93;;;12.70;99.90;;;;;;6211144;23;20004;-77
2022/10/30 09:03:09;;;;;;;21.90;12.25;;;12.60;99.90;;;;;;6250258;22;20024;-80
2022/10/30 09:05:38;;;;;;;20.70;11.80;;;12.60;99.90;;;;;;6236097;23;20338;-80
2022/10/30 09:08:27;;;;;;;22.60;12.85;;;12.60;99.90;;;;;;6180646;23;20031;-79
2022/10/30 09:11:09;;;;;;;19.90;11.95;;;12.60;99.90;;;;;;6197341;23;20020;-79
2022/10/30 09:13:35;;;;;;;21.83;12.05;;;12.80;99.90;;;;;;6196355;23;20042;-81
2022/10/30 09:16:03;;;;;;;19.40;11.18;;;13.00;99.90;;;;;;6195003;23;20019;-80
2022/10/30 09:18:32;;;;;;;18.33;10.55;;;13.20;99.90;;;;;;6192574;23;20055;-81
2022/10/30 09:20:58;;;;;;;21.30;10.50;;;13.40;99.90;;;;;;6196460;23;20024;-80
2022/10/30 09:23:24;;;;;;;17.05;11.32;;;13.50;99.90;;;;;;6203289;23;20009;-78
2022/10/30 09:25:58;;;;;;;19.02;11.27;;;13.70;99.90;;;;;;6210207;23;20267;-77
2022/10/30 09:28:40;;;;;;;17.38;11.00;;;13.80;99.90;;;;;;6207650;23;20071;-80
2022/10/30 09:31:31;;;;;;;21.52;11.40;;;13.80;99.90;;;;;;6221465;23;20012;-80
2022/10/30 09:33:57;;;;;;;21.17;11.77;;;13.60;99.90;;;;;;6194629;23;20012;-82
2022/10/30 09:36:55;;;;;;;20.65;11.80;;;13.60;99.90;;;;;;6215129;23;20450;-79
2022/10/30 09:39:22;;;;;;;20.33;11.43;;;13.50;99.90;;;;;;6194177;23;20035;-79
2022/10/30 09:42:25;;;;;;;21.38;12.02;;;13.50;99.90;;;;;;6194530;23;20120;-80
2022/10/30 09:45:08;;;;;;;17.50;11.27;;;13.50;99.90;;;;;;6197260;23;20043;-79
2022/10/30 09:48:00;;;;;;;18.88;11.35;;;13.50;99.90;;;;;;6193772;23;20072;-79
2022/10/30 09:50:48;;;;;;;17.08;10.80;;;13.70;99.90;;;;;;6194261;23;20004;-78
2022/10/30 09:53:29;;;;;;;19.75;11.35;;;13.60;99.90;;;;;;6193005;23;20009;-81
2022/10/30 09:56:18;;;;;;;22.70;14.50;;;13.80;99.90;;;;;;6195032;23;20100;-79
2022/10/30 09:59:23;;;;;;;22.30;13.82;;;13.70;99.90;;;;;;6228155;23;20031;-78
2022/10/30 10:02:15;;;;;;;22.98;13.10;;;13.60;99.90;;;;;;6197853;23;20009;-79
2022/10/30 10:04:45;;;;;;;24.50;15.35;;;13.70;99.90;;;;;;6224100;23;20009;-78
2022/10/30 10:07:26;;;;;;;29.77;17.23;;;13.70;99.90;;;;;;6194595;23;20016;-78
2022/10/30 10:10:06;;;;;;;22.13;14.07;;;13.70;99.90;;;;;;6196861;23;20016;-79
2022/10/30 10:12:50;;;;;;;20.50;12.13;;;13.60;99.90;;;;;;6196590;23;20008;-80
2022/10/30 10:15:36;;;;;;;19.48;12.05;;;13.50;99.90;;;;;;6222393;23;20008;-79
2022/10/30 10:18:11;;;;;;;21.08;12.25;;;13.50;99.90;;;;;;6225177;23;19996;-80
2022/10/30 10:20:41;;;;;;;20.60;12.60;;;13.50;99.90;;;;;;6222418;23;20012;-79
2022/10/30 10:23:38;;;;;;;27.92;17.15;;;13.60;99.90;;;;;;6221236;23;20008;-78
2022/10/30 10:26:27;;;;;;;23.95;15.45;;;13.60;99.90;;;;;;6193870;23;20338;-79
2022/10/30 10:29:16;;;;;;;19.08;12.13;;;13.60;99.90;;;;;;6192148;23;20039;-80
2022/10/30 10:32:05;;;;;;;19.17;11.82;;;13.50;99.90;;;;;;6237972;23;20020;-78
2022/10/30 10:34:31;;;;;;;18.17;10.68;;;13.60;99.90;;;;;;6206689;23;20008;-78
2022/10/30 10:37:06;;;;;;;18.08;11.43;;;13.60;99.90;;;;;;6205149;23;20431;-80
2022/10/30 10:39:35;;;;;;;;;;;13.50;99.90;;;;;;6222055;23;20450;-79
2022/10/30 10:42:21;;;;;;;16.58;11.25;;;13.50;99.90;;;;;;6225943;23;19907;-81
2022/10/30 10:45:05;;;;;;;19.77;12.52;;;13.60;99.90;;;;;;6227358;23;20423;-79
2022/10/30 10:48:00;;;;;;;21.08;12.02;;;13.60;99.90;;;;;;6228853;23;20027;-80
2022/10/30 10:50:46;;;;;;;24.17;12.57;;;13.60;99.90;;;;;;6229154;23;20008;-77
2022/10/30 10:53:27;;;;;;;21.65;12.45;;;13.70;99.90;;;;;;6232632;23;20100;-79
2022/10/30 10:55:58;;;;;;;20.38;12.18;;;13.70;99.90;;;;;;6233727;23;20119;-78
2022/10/30 10:58:47;;;;;;;23.35;11.73;;;13.70;99.90;;;;;;6210727;23;20000;-79
2022/10/30 11:01:17;;;;;;;19.70;12.23;;;13.70;99.90;;;;;;6238126;23;20009;-78
2022/10/30 11:03:58;;;;;;;23.92;12.15;;;13.70;99.90;;;;;;6237892;23;20012;-78
2022/10/30 11:06:27;;;;;;;20.48;11.88;;;13.70;99.90;;;;;;6208481;23;20060;-78
2022/10/30 11:09:15;;;;;;;19.48;12.45;;;13.80;99.90;;;;;;6227061;23;20080;-79
2022/10/30 11:11:43;;;;;;;18.90;12.02;;;13.80;99.90;;;;;;6223040;23;20011;-78
2022/10/30 11:14:18;;;;;;;17.67;11.32;;;13.80;99.90;;;;;;6227520;23;20328;-79
2022/10/30 11:16:46;;;;;;;;;;;13.80;99.90;;;;;;6201972;23;20004;-80
2022/10/30 11:19:12;;;;;;;26.63;16.58;;;13.80;99.90;;;;;;6223055;23;20315;-80
2022/10/30 11:21:44;;;;;;;21.45;14.00;;;13.80;99.90;;;;;;6221365;23;20063;-78
2022/10/30 11:24:33;;;;;;;23.77;14.02;;;13.70;99.90;;;;;;6185331;23;20008;-79
2022/10/30 11:27:22;;;;;;;23.38;12.63;;;13.70;99.90;;;;;;6194032;23;20038;-78
2022/10/30 11:30:03;;;;;;;17.77;12.32;;;13.60;99.90;;;;;;6222291;23;20015;-80
2022/10/30 11:32:32;;;;;;;21.17;12.80;;;13.70;99.90;;;;;;6223138;23;20342;-79
2022/10/30 11:35:07;;;;;;;24.38;12.00;;;13.70;99.90;;;;;;6223724;23;20007;-79
2022/10/30 11:37:35;;;;;;;21.42;13.10;;;13.90;99.90;;;;;;6218674;23;20000;-78
2022/10/30 11:40:24;;;;;;;18.63;11.95;;;13.80;99.90;;;;;;6201575;23;20001;-79
2022/10/30 11:42:58;;;;;;;26.73;15.07;;;13.90;99.90;;;;;;6232906;23;20035;-78
2022/10/30 11:45:27;;;;;;;21.70;13.60;;;13.90;99.90;;;;;;6235675;23;20005;-77
2022/10/30 11:47:57;;;;;;;25.38;15.05;;;13.90;99.90;;;;;;6235691;23;20024;-82
2022/10/30 11:50:26;;;;;;;23.88;15.95;;;13.90;99.90;;;;;;6228269;23;20004;-80
2022/10/30 11:52:54;;;;;;;24.92;15.32;;;13.60;99.90;;;;;;6226233;23;20039;-79
2022/10/30 11:55:32;;;;;;;27.00;15.95;;;13.60;99.90;;;;;;6204868;23;20008;-80
2022/10/30 11:57:58;;;;;;;26.25;15.85;;;13.70;99.90;;;;;;6205916;23;20004;-79
2022/10/30 12:00:30;;;;;;;23.63;15.25;;;13.80;99.90;;;;;;6232085;23;20071;-79
2022/10/30 12:02:59;;;;;;;28.10;15.25;;;13.80;99.90;;;;;;6223689;23;20001;-80
2022/10/30 12:05:24;;;;;;;33.30;19.27;;;13.90;99.90;;;;;;6197071;23;20383;-80
2022/10/30 12:08:05;;;;;;;24.58;17.00;;;14.00;99.90;;;;;;6224952;23;20011;-82
2022/10/30 12:10:44;;;;;;;25.55;15.98;;;14.00;99.90;;;;;;6199000;23;20059;-82
2022/10/30 12:13:19;;;;;;;24.90;15.45;;;14.10;99.90;;;;;;6216836;23;19992;-79
2022/10/30 12:15:47;;;;;;;;;;;14.20;99.90;;;;;;6216055;23;20008;-80
2022/10/30 12:18:24;;;;;;;36.78;20.55;;;14.20;99.90;;;;;;6236115;22;19935;-81
2022/10/30 12:20:56;;;;;;;32.28;19.98;;;14.20;99.90;;;;;;6195338;23;20000;-81
2022/10/30 12:23:24;;;;;;;41.22;24.15;;;14.10;99.90;;;;;;6193808;23;20008;-80
2022/10/30 12:26:08;;;;;;;42.20;25.10;;;14.10;99.90;;;;;;6220430;23;20509;-80
2022/10/30 12:28:35;;;;;;;44.90;26.60;;;14.10;99.90;;;;;;6219657;23;20076;-80
2022/10/30 12:31:19;;;;;;;47.90;30.38;;;14.00;99.90;;;;;;6228107;23;20056;-80
2022/10/30 12:33:52;;;;;;;57.15;31.85;;;14.00;99.90;;;;;;6193693;23;20527;-80
2022/10/30 12:36:25;;;;;;;59.95;32.35;;;14.00;99.90;;;;;;6198569;23;20024;-80
2022/10/30 12:38:58;;;;;;;70.50;39.40;;;13.90;99.90;;;;;;6201140;23;20090;-79
2022/10/30 12:41:26;;;;;;;75.93;42.58;;;13.80;99.90;;;;;;6201566;23;20035;-80
2022/10/30 12:44:07;;;;;;;88.70;47.83;;;13.80;99.90;;;;;;6236078;23;20001;-80
2022/10/30 12:46:42;;;;;;;98.18;50.25;;;13.70;99.90;;;;;;6229055;23;20139;-82
2022/10/30 12:49:26;;;;;;;95.85;50.13;;;13.60;99.90;;;;;;6223525;23;20001;-82
2022/10/30 12:51:55;;;;;;;107.97;52.47;;;13.60;99.90;;;;;;6223329;23;20039;-83
2022/10/30 12:54:46;;;;;;;103.47;52.92;;;13.60;99.90;;;;;;6227801;23;20004;-79
2022/10/30 12:57:23;;;;;;;103.20;52.63;;;13.70;99.90;;;;;;6208033;23;20008;-82
2022/10/30 13:00:08;;;;;;;105.68;52.53;;;13.80;99.90;;;;;;6228948;23;20016;-82
2022/10/30 13:02:37;;;;;;;106.97;54.92;;;13.80;99.90;;;;;;6221810;23;20517;-82
2022/10/30 13:05:26;;;;;;;112.60;55.97;;;13.80;99.90;;;;;;6195297;23;20013;-81
2022/10/30 13:08:16;;;;;;;101.72;53.33;;;13.70;99.90;;;;;;6194174;23;20009;-81
2022/10/30 13:10:59;;;;;;;113.35;58.00;;;13.60;99.90;;;;;;6219351;23;20005;-79
2022/10/30 13:13:31;;;;;;;107.32;55.92;;;13.70;99.90;;;;;;6219825;23;20008;-80
2022/10/30 13:15:59;;;;;;;121.05;56.65;;;13.40;99.90;;;;;;6220009;23;20059;-81
2022/10/30 13:18:25;;;;;;;111.05;56.80;;;13.20;99.90;;;;;;6239529;22;20024;-80
2022/10/30 13:21:00;;;;;;;117.70;57.88;;;13.20;99.90;;;;;;6230284;23;20443;-79
2022/10/30 13:23:39;;;;;;;111.00;54.80;;;13.20;99.90;;;;;;6235629;23;20004;-79
2022/10/30 13:26:19;;;;;;;106.15;53.35;;;13.30;99.90;;;;;;6234645;23;20009;-79
2022/10/30 13:28:53;;;;;;;105.95;53.10;;;13.30;99.90;;;;;;6233175;23;20009;-79
2022/10/30 13:31:54;;;;;;;110.78;53.78;;;13.40;99.90;;;;;;6236323;23;20036;-79
2022/10/30 13:34:42;;;;;;;109.53;54.53;;;13.40;99.90;;;;;;6230439;23;20008;-79
2022/10/30 13:37:21;;;;;;;107.25;54.05;;;13.40;99.90;;;;;;6236592;23;20012;-79
2022/10/30 13:39:56;;;;;;;110.63;54.05;;;13.50;99.90;;;;;;6238678;23;20005;-79
2022/10/30 13:42:30;;;;;;;;;;;13.50;99.90;;;;;;6239618;23;20003;-80
2022/10/30 13:45:41;;;;;;;112.20;54.57;;;13.50;99.90;;;;;;6212401;23;19892;-79
2022/10/30 13:48:17;;;;;;;111.03;55.45;;;13.40;99.90;;;;;;6225563;23;20247;-80
2022/10/30 13:51:06;;;;;;;113.95;56.33;;;13.50;99.90;;;;;;6236468;23;20056;-78
2022/10/30 13:53:35;;;;;;;111.57;53.53;;;13.40;99.90;;;;;;6225924;23;20031;-81
2022/10/30 13:56:00;;;;;;;113.25;54.00;;;13.40;99.90;;;;;;6225159;23;20031;-80
2022/10/30 13:58:40;;;;;;;100.95;51.47;;;13.50;99.90;;;;;;6222282;23;20005;-79
2022/10/30 14:01:20;;;;;;;100.80;51.42;;;13.50;99.90;;;;;;6221641;23;20016;-79
2022/10/30 14:04:05;;;;;;;107.13;54.88;;;13.40;99.90;;;;;;6170509;23;20018;-79
2022/10/30 14:06:40;;;;;;;;;;;13.30;99.90;;;;;;6220685;23;20004;-80
2022/10/30 14:09:14;;;;;;;105.50;53.97;;;13.30;99.90;;;;;;6194585;23;19958;-78
2022/10/30 14:11:40;;;;;;;99.80;50.78;;;13.30;99.90;;;;;;6219381;23;20231;-79
2022/10/30 14:14:11;;;;;;;100.47;52.15;;;13.30;99.90;;;;;;6220575;23;20047;-81
2022/10/30 14:16:43;;;;;;;112.40;54.53;;;13.40;99.90;;;;;;6222068;23;20000;-80
2022/10/30 14:19:13;;;;;;;113.47;57.13;;;13.40;99.90;;;;;;6221443;23;20020;-80
2022/10/30 14:21:55;;;;;;;107.93;54.20;;;13.40;99.90;;;;;;6196261;23;20040;-80
2022/10/30 14:24:27;;;;;;;104.10;56.00;;;13.40;99.90;;;;;;6224137;23;20388;-80
2022/10/30 14:26:54;;;;;;;111.35;57.25;;;13.30;99.90;;;;;;6233022;23;20064;-80
2022/10/30 14:29:35;;;;;;;112.30;58.42;;;13.20;99.90;;;;;;6231438;23;20466;-79
2022/10/30 14:32:22;;;;;;;109.97;56.17;;;13.10;99.90;;;;;;6229500;23;20458;-80
2022/10/30 14:34:51;;;;;;;106.28;54.50;;;13.10;99.90;;;;;;6214104;23;20020;-80
2022/10/30 14:37:18;;;;;;;108.35;56.38;;;13.00;99.90;;;;;;6232252;23;20016;-79
2022/10/30 14:39:45;;;;;;;106.20;54.13;;;13.00;99.90;;;;;;6233897;23;20005;-79
2022/10/30 14:42:35;;;;;;;106.75;56.08;;;13.00;99.90;;;;;;6208320;23;20052;-78
2022/10/30 14:45:38;;;;;;;105.78;54.13;;;12.90;99.90;;;;;;6206824;23;20004;-79
2022/10/30 14:48:58;;;;;;;106.57;54.95;;;12.90;99.90;;;;;;6232862;23;20464;-79
2022/10/30 14:51:57;;;;;;;119.50;57.60;;;13.00;99.90;;;;;;6120318;23;20014;-81
2022/10/30 14:54:27;;;;;;;109.07;55.83;;;13.00;99.90;;;;;;6231055;23;20036;-79
2022/10/30 14:56:53;;;;;;;107.72;53.75;;;12.90;99.90;;;;;;6238591;23;20005;-81
2022/10/30 14:59:23;;;;;;;105.22;52.13;;;12.80;99.90;;;;;;6236222;23;20012;-79
2022/10/30 15:01:54;;;;;;;111.55;54.20;;;12.80;99.90;;;;;;6212674;23;20060;-82
2022/10/30 15:04:49;;;;;;;104.57;52.88;;;12.80;99.90;;;;;;6236361;23;20025;-80
2022/10/30 15:07:25;;;;;;;115.38;54.58;;;12.80;99.90;;;;;;6228508;23;20012;-79
2022/10/30 15:10:03;;;;;;;113.18;54.25;;;12.80;99.90;;;;;;6237869;23;20008;-80
2022/10/30 15:12:47;;;;;;;107.85;53.80;;;12.80;99.90;;;;;;6208928;23;20008;-80
2022/10/30 15:15:15;;;;;;;109.00;53.25;;;12.80;99.90;;;;;;6208134;23;20022;-79
2022/10/30 15:17:51;;;;;;;107.57;52.67;;;12.80;99.90;;;;;;6235682;23;19996;-79
2022/10/30 15:20:24;;;;;;;116.28;56.63;;;12.80;99.90;;;;;;6236962;23;20008;-81
2022/10/30 15:23:03;;;;;;;127.75;58.58;;;12.70;99.90;;;;;;6234313;23;20008;-80
2022/10/30 15:25:43;;;;;;;111.40;53.72;;;12.70;99.90;;;;;;6221090;23;20338;-81
2022/10/30 15:28:18;;;;;;;112.32;54.00;;;12.70;99.90;;;;;;6219210;23;20019;-81
2022/10/30 15:31:16;;;;;;;111.35;51.13;;;12.70;99.90;;;;;;6227065;23;20080;-79
2022/10/30 15:33:41;;;;;;;114.82;55.80;;;12.70;99.90;;;;;;6232762;23;20015;-80
2022/10/30 15:36:29;;;;;;;115.55;54.15;;;12.70;99.90;;;;;;6192703;23;19997;-79
2022/10/30 15:39:24;;;;;;;114.38;52.67;;;12.70;99.90;;;;;;6194365;23;20063;-80
2022/10/30 15:41:59;;;;;;;122.88;56.17;;;12.70;99.90;;;;;;6214603;23;20088;-80
2022/10/30 15:44:34;;;;;;;126.32;54.95;;;12.60;99.90;;;;;;6235189;23;19997;-80
2022/10/30 15:47:03;;;;;;;129.60;56.03;;;12.70;99.90;;;;;;6237120;23;20008;-79
2022/10/30 15:49:40;;;;;;;125.32;54.65;;;12.70;99.90;;;;;;6208069;23;19997;-81
2022/10/30 15:52:26;;;;;;;132.57;60.00;;;12.70;99.90;;;;;;6209521;23;20000;-80
2022/10/30 15:55:03;;;;;;;131.30;58.67;;;12.70;99.90;;;;;;6235291;23;20012;-80
2022/10/30 15:57:38;;;;;;;126.78;55.80;;;12.70;99.90;;;;;;6236255;23;20004;-80
2022/10/30 16:00:17;;;;;;;133.52;58.47;;;12.70;99.90;;;;;;6234797;23;20024;-79
2022/10/30 16:02:48;;;;;;;134.23;58.40;;;12.70;99.90;;;;;;6202053;23;20001;-80
2022/10/30 16:05:24;;;;;;;138.77;60.15;;;12.70;99.90;;;;;;6223219;23;20135;-80
2022/10/30 16:07:53;;;;;;;128.73;57.60;;;12.70;99.90;;;;;;6223857;23;20036;-80
2022/10/30 16:10:19;;;;;;;123.55;53.20;;;12.70;99.90;;;;;;6223797;23;20015;-79
2022/10/30 16:12:45;;;;;;;137.52;57.95;;;12.80;99.90;;;;;;6227555;23;20004;-79
2022/10/30 16:15:26;;;;;;;131.70;58.10;;;12.70;99.90;;;;;;6207856;23;20012;-80
2022/10/30 16:18:18;;;;;;;135.60;55.63;;;12.70;99.90;;;;;;6184241;23;20004;-81
2022/10/30 16:20:56;;;;;;;125.47;53.92;;;12.80;99.90;;;;;;6237138;23;20003;-81
2022/10/30 16:23:23;;;;;;;127.30;51.35;;;12.80;99.90;;;;;;6237044;23;20000;-80
2022/10/30 16:25:57;;;;;;;118.15;50.03;;;12.80;99.90;;;;;;6237526;23;20501;-79
2022/10/30 16:28:31;;;;;;;110.63;46.63;;;12.80;99.90;;;;;;6226535;23;20015;-79
2022/10/30 16:31:03;;;;;;;97.20;43.13;;;12.80;99.90;;;;;;6196263;23;20248;-79
2022/10/30 16:33:32;;;;;;;82.70;37.65;;;12.70;99.90;;;;;;6201734;23;20012;-80
2022/10/30 16:36:00;;;;;;;88.97;38.30;;;12.60;99.90;;;;;;6209016;23;20000;-78
2022/10/30 16:38:30;;;;;;;91.95;40.78;;;12.50;99.90;;;;;;6209580;23;19995;-80
2022/10/30 16:40:56;;;;;;;85.35;37.10;;;12.50;99.90;;;;;;6235025;23;20004;-77
2022/10/30 16:43:30;;;;;;;90.45;38.80;;;12.50;99.90;;;;;;6205889;23;20000;-78
2022/10/30 16:46:15;;;;;;;76.72;37.40;;;12.50;99.90;;;;;;6207485;23;20287;-78
2022/10/30 16:48:56;;;;;;;123.38;54.80;;;12.50;99.90;;;;;;6232901;23;20008;-77
2022/10/30 16:51:22;;;;;;;95.75;39.20;;;12.50;99.90;;;;;;6234752;23;20455;-78
2022/10/30 16:53:50;;;;;;;79.93;35.60;;;12.50;99.90;;;;;;6207119;23;20031;-78
2022/10/30 16:56:25;;;;;;;80.93;38.03;;;12.50;99.90;;;;;;6207913;23;20015;-78
2022/10/30 16:58:53;;;;;;;92.97;40.45;;;12.50;99.90;;;;;;6232252;23;20005;-78
2022/10/30 17:01:24;;;;;;;105.70;44.17;;;12.50;99.90;;;;;;6235498;23;19984;-78
2022/10/30 17:03:50;;;;;;;105.80;41.70;;;12.40;99.90;;;;;;6233165;23;20058;-80
2022/10/30 17:06:40;;;;;;;97.93;41.53;;;12.40;99.90;;;;;;6230535;23;20000;-78
2022/10/30 17:09:08;;;;;;;85.95;38.15;;;12.40;99.90;;;;;;6223969;23;20087;-79
2022/10/30 17:11:42;;;;;;;91.65;37.38;;;12.50;99.90;;;;;;6236327;23;19989;-78
2022/10/30 17:14:21;;;;;;;95.47;40.22;;;12.50;99.90;;;;;;6235365;23;20009;-79
2022/10/30 17:17:27;;;;;;;112.90;44.30;;;12.50;99.90;;;;;;6209679;23;20024;-78
2022/10/30 17:20:17;;;;;;;99.88;40.78;;;12.40;99.90;;;;;;6234644;23;20035;-79
2022/10/30 17:22:43;;;;;;;93.50;39.40;;;12.30;99.90;;;;;;6216117;23;19992;-78
2022/10/30 17:25:29;;;;;;;95.75;40.08;;;12.30;99.90;;;;;;6210812;23;20005;-80